Time;durP1;ratioP1;P1;durP2;ratioP2;P2;SDS_P1;SDS_P2;PMS_P1;PMS_P2;Temp;Humidity;BMP_temperature;BMP_pressure;BME280_temperature;BME280_humidity;BME280_pressure;Samples;Min_cycle;Max_cycle;Signal;HPM_P1;HPM_P2
2022/06/13 00:01:14;;;;;;;;;2.00;2.00;;;;;;;;4973610;28;45488;-65
2022/06/13 00:03:39;;;;;;;;;2.00;1.00;;;;;;;;4978379;28;46144;-64
2022/06/13 00:06:05;;;;;;;;;3.50;2.00;;;;;;;;4973761;28;45929;-65
2022/06/13 00:08:30;;;;;;;;;3.00;2.00;;;;;;;;4973458;28;45635;-65
2022/06/13 00:10:56;;;;;;;;;3.00;3.00;;;;;;;;4974677;28;45603;-64
2022/06/13 00:13:21;;;;;;;;;3.75;2.75;;;;;;;;4973177;28;45345;-65
2022/06/13 00:15:46;;;;;;;;;2.75;2.00;;;;;;;;4978286;28;46007;-65
2022/06/13 00:18:11;;;;;;;;;1.50;1.50;;;;;;;;4969212;28;45988;-65
2022/06/13 00:20:37;;;;;;;;;2.25;2.00;;;;;;;;4975338;28;45618;-66
2022/06/13 00:23:02;;;;;;;;;8.25;2.75;;;;;;;;4976775;28;45985;-65
2022/06/13 00:25:27;;;;;;;;;1.25;1.25;;;;;;;;4974765;28;46129;-65
2022/06/13 00:27:52;;;;;;;;;3.50;3.50;;;;;;;;4979687;28;45539;-64
2022/06/13 00:30:18;;;;;;;;;2.00;2.00;;;;;;;;4985401;28;45778;-64
2022/06/13 00:32:43;;;;;;;;;3.00;2.00;;;;;;;;4970147;28;45594;-65
2022/06/13 00:35:08;;;;;;;;;2.00;1.50;;;;;;;;4976723;28;45416;-63
2022/06/13 00:37:34;;;;;;;;;4.75;3.00;;;;;;;;4972445;28;45452;-65
2022/06/13 00:39:59;;;;;;;;;2.00;2.00;;;;;;;;4972866;28;45451;-66
2022/06/13 00:42:25;;;;;;;;;2.75;2.50;;;;;;;;4969790;28;45328;-64
2022/06/13 00:45:06;;;;;;;;;1.00;1.00;;;;;;;;4974532;28;45910;-64
2022/06/13 00:47:31;;;;;;;;;2.00;2.00;;;;;;;;4978037;28;45491;-65
2022/06/13 00:49:58;;;;;;;;;3.50;1.75;;;;;;;;4982223;28;45608;-64
2022/06/13 00:52:53;;;;;;;;;4.50;2.00;;;;;;;;4978914;28;46034;-65
2022/06/13 00:55:22;;;;;;;;;5.00;3.00;;;;;;;;4965127;28;47310;-64
2022/06/13 00:57:47;;;;;;;;;2.25;2.25;;;;;;;;4980832;28;46833;-66
2022/06/13 01:00:13;;;;;;;;;4.00;2.00;;;;;;;;4973934;28;45493;-65
2022/06/13 01:02:40;;;;;;;;;2.50;2.50;;;;;;;;4976570;28;45759;-65
2022/06/13 01:05:07;;;;;;;;;3.25;3.00;;;;;;;;4970180;28;46062;-65
2022/06/13 01:07:32;;;;;;;;;4.00;3.00;;;;;;;;4986574;28;45530;-65
2022/06/13 01:12:42;;;;;;;;;5.00;3.00;;;;;;;;4976298;28;45743;-64
2022/06/13 01:15:16;;;;;;;;;6.00;3.25;;;;;;;;4973505;28;46422;-63
2022/06/13 01:17:54;;;;;;;;;3.50;2.75;;;;;;;;4977633;28;45526;-64
2022/06/13 01:20:21;;;;;;;;;2.75;2.25;;;;;;;;4964615;28;45596;-65
2022/06/13 01:23:01;;;;;;;;;3.75;3.75;;;;;;;;5005303;28;45981;-66
2022/06/13 01:25:45;;;;;;;;;4.00;4.00;;;;;;;;4988221;28;48615;-64
2022/06/13 01:28:22;;;;;;;;;4.50;4.00;;;;;;;;4972122;28;45497;-64
2022/06/13 01:30:55;;;;;;;;;2.50;2.50;;;;;;;;5004733;28;45510;-64
2022/06/13 01:33:42;;;;;;;;;4.75;4.75;;;;;;;;4972707;28;45661;-63
2022/06/13 01:36:10;;;;;;;;;4.00;4.00;;;;;;;;4966498;28;47846;-65
2022/06/13 01:38:47;;;;;;;;;4.00;3.00;;;;;;;;4970105;28;45476;-65
2022/06/13 01:41:22;;;;;;;;;3.00;3.00;;;;;;;;4968185;28;45637;-65
2022/06/13 01:43:48;;;;;;;;;6.50;4.25;;;;;;;;4984356;28;45551;-65
2022/06/13 01:46:21;;;;;;;;;5.00;4.00;;;;;;;;4987193;28;48538;-63
2022/06/13 01:48:59;;;;;;;;;4.00;4.00;;;;;;;;4964990;28;45465;-66
2022/06/13 01:51:43;;;;;;;;;3.25;3.25;;;;;;;;4969829;28;45600;-66
2022/06/13 01:54:20;;;;;;;;;6.00;5.00;;;;;;;;4987732;28;46130;-64
2022/06/13 01:56:45;;;;;;;;;4.00;2.75;;;;;;;;4972506;28;45866;-65
2022/06/13 01:59:14;;;;;;;;;5.75;4.75;;;;;;;;4972186;28;45496;-65
2022/06/13 02:01:58;;;;;;;;;6.25;4.75;;;;;;;;4970145;28;45485;-65
2022/06/13 02:04:33;;;;;;;;;4.75;3.75;;;;;;;;4986213;28;45375;-65
2022/06/13 02:07:14;;;;;;;;;2.00;2.00;;;;;;;;4970179;28;47476;-66
2022/06/13 02:09:45;;;;;;;;;6.75;6.75;;;;;;;;5004755;28;46524;-64
2022/06/13 02:12:12;;;;;;;;;5.00;4.00;;;;;;;;4970057;28;45871;-64
2022/06/13 02:14:42;;;;;;;;;3.75;3.75;;;;;;;;4970548;28;45458;-65
2022/06/13 02:17:07;;;;;;;;;4.00;3.50;;;;;;;;4971213;28;45909;-64
2022/06/13 02:19:34;;;;;;;;;4.25;4.25;;;;;;;;4967244;28;45775;-64
2022/06/13 02:22:12;;;;;;;;;3.50;3.00;;;;;;;;4986173;28;46017;-65
2022/06/13 02:24:41;;;;;;;;;3.75;3.75;;;;;;;;4985515;28;46256;-64
2022/06/13 02:27:09;;;;;;;;;5.75;4.75;;;;;;;;5002427;28;47600;-65
2022/06/13 02:29:44;;;;;;;;;4.75;4.75;;;;;;;;4971168;28;45554;-64
2022/06/13 02:32:23;;;;;;;;;4.75;3.25;;;;;;;;4966283;28;46759;-64
2022/06/13 02:34:55;;;;;;;;;4.25;4.25;;;;;;;;4970435;28;45559;-63
2022/06/13 02:37:25;;;;;;;;;4.75;4.75;;;;;;;;4970417;28;48107;-66
2022/06/13 02:39:57;;;;;;;;;4.00;4.00;;;;;;;;4972350;28;45506;-65
2022/06/13 02:42:25;;;;;;;;;4.75;3.50;;;;;;;;4970929;28;45655;-65
2022/06/13 02:44:58;;;;;;;;;5.50;5.25;;;;;;;;4985750;28;45658;-65
2022/06/13 02:47:33;;;;;;;;;3.25;3.25;;;;;;;;4968480;28;46491;-64
2022/06/13 02:49:58;;;;;;;;;4.00;4.00;;;;;;;;4971292;28;45481;-64
2022/06/13 02:52:30;;;;;;;;;7.00;4.50;;;;;;;;4972356;28;46329;-64
2022/06/13 02:54:57;;;;;;;;;6.25;5.75;;;;;;;;4972202;28;45975;-65
2022/06/13 02:57:41;;;;;;;;;4.00;4.00;;;;;;;;4970211;28;48700;-65
2022/06/13 03:00:24;;;;;;;;;5.00;4.00;;;;;;;;4971902;28;45533;-64
2022/06/13 03:02:55;;;;;;;;;7.00;4.75;;;;;;;;4968846;28;46582;-65
2022/06/13 03:05:47;;;;;;;;;2.75;2.75;;;;;;;;4986103;28;45614;-63
2022/06/13 03:08:15;;;;;;;;;5.00;5.00;;;;;;;;4970023;28;45844;-64
2022/06/13 03:10:42;;;;;;;;;5.25;4.00;;;;;;;;4970338;28;45666;-64
2022/06/13 03:13:19;;;;;;;;;5.50;4.50;;;;;;;;4971488;28;45412;-64
2022/06/13 03:15:50;;;;;;;;;6.00;6.00;;;;;;;;4971718;28;45446;-64
2022/06/13 03:18:18;;;;;;;;;6.75;5.75;;;;;;;;4968648;28;48821;-64
2022/06/13 03:20:52;;;;;;;;;7.75;6.00;;;;;;;;4970038;28;45492;-64
2022/06/13 03:23:28;;;;;;;;;8.50;4.25;;;;;;;;4969918;28;45947;-64
2022/06/13 03:25:59;;;;;;;;;7.25;7.00;;;;;;;;4971207;28;45434;-63
2022/06/13 03:28:33;;;;;;;;;5.50;5.50;;;;;;;;4969825;28;46329;-64
2022/06/13 03:31:03;;;;;;;;;5.00;5.00;;;;;;;;5002694;28;45368;-62
2022/06/13 03:33:40;;;;;;;;;9.25;5.00;;;;;;;;4970904;28;45522;-63
2022/06/13 03:36:23;;;;;;;;;5.00;4.75;;;;;;;;4967567;28;45401;-64
2022/06/13 03:38:54;;;;;;;;;7.00;5.00;;;;;;;;4970329;28;46199;-65
2022/06/13 03:41:21;;;;;;;;;7.50;5.00;;;;;;;;4985915;28;45486;-63
2022/06/13 03:43:51;;;;;;;;;5.75;5.25;;;;;;;;5002277;28;45492;-68
2022/06/13 03:46:33;;;;;;;;;5.25;5.25;;;;;;;;4971561;28;45478;-64
2022/06/13 03:49:16;;;;;;;;;6.00;4.75;;;;;;;;5002774;28;47654;-65
2022/06/13 03:51:43;;;;;;;;;5.00;5.00;;;;;;;;4969842;28;45958;-65
2022/06/13 03:54:13;;;;;;;;;7.50;5.25;;;;;;;;4985982;28;45923;-65
2022/06/13 03:56:42;;;;;;;;;7.00;6.00;;;;;;;;4971179;28;45485;-65
2022/06/13 03:59:10;;;;;;;;;5.00;5.00;;;;;;;;4970795;28;45569;-65
2022/06/13 04:01:36;;;;;;;;;7.25;5.25;;;;;;;;4970927;28;45582;-66
2022/06/13 04:04:02;;;;;;;;;11.00;6.75;;;;;;;;4969641;28;45357;-65
2022/06/13 04:06:32;;;;;;;;;8.00;7.00;;;;;;;;5002397;28;45357;-64
2022/06/13 04:08:58;;;;;;;;;5.25;5.00;;;;;;;;4970292;28;45832;-63
2022/06/13 04:11:59;;;;;;;;;5.00;4.00;;;;;;;;4985904;28;45574;-64
2022/06/13 04:14:43;;;;;;;;;5.00;4.50;;;;;;;;4947606;28;45578;-64
2022/06/13 04:17:34;;;;;;;;;6.25;5.75;;;;;;;;4948294;28;45633;-64
2022/06/13 04:20:15;;;;;;;;;6.00;4.75;;;;;;;;4929255;28;47826;-63
2022/06/13 04:22:56;;;;;;;;;7.00;5.50;;;;;;;;4945837;28;45440;-63
2022/06/13 04:25:25;;;;;;;;;5.75;5.75;;;;;;;;4942904;28;45917;-63
2022/06/13 04:27:58;;;;;;;;;7.50;4.50;;;;;;;;4948092;28;45523;-65
2022/06/13 04:30:25;;;;;;;;;5.00;4.25;;;;;;;;4948012;28;45996;-64
2022/06/13 04:32:53;;;;;;;;;8.75;6.00;;;;;;;;4947085;28;45727;-64
2022/06/13 04:35:19;;;;;;;;;5.25;5.00;;;;;;;;4947777;28;45482;-64
2022/06/13 04:37:45;;;;;;;;;6.50;6.00;;;;;;;;4948079;28;45579;-65
2022/06/13 04:40:16;;;;;;;;;8.50;6.75;;;;;;;;4948538;28;46476;-64
2022/06/13 04:42:43;;;;;;;;;6.00;6.00;;;;;;;;4946032;28;45476;-63
2022/06/13 04:45:18;;;;;;;;;5.75;5.25;;;;;;;;4944288;28;45482;-64
2022/06/13 04:47:44;;;;;;;;;7.00;6.00;;;;;;;;4936003;28;45420;-65
2022/06/13 04:50:15;;;;;;;;;6.75;5.25;;;;;;;;4968486;28;48305;-65
2022/06/13 04:52:41;;;;;;;;;8.00;7.00;;;;;;;;4969619;28;45504;-64
2022/06/13 04:55:17;;;;;;;;;6.00;5.00;;;;;;;;4985362;28;45526;-65
2022/06/13 04:57:43;;;;;;;;;6.25;6.25;;;;;;;;4970904;28;45579;-65
2022/06/13 05:00:09;;;;;;;;;5.25;5.00;;;;;;;;4985047;28;48521;-63
2022/06/13 05:02:40;;;;;;;;;7.00;7.00;;;;;;;;4968941;28;45491;-67
2022/06/13 05:05:17;;;;;;;;;8.50;7.00;;;;;;;;4970230;28;45516;-63
2022/06/13 05:07:42;;;;;;;;;6.00;5.50;;;;;;;;4969918;28;45360;-64
2022/06/13 05:10:12;;;;;;;;;5.50;5.50;;;;;;;;4969649;28;46208;-63
2022/06/13 05:12:40;;;;;;;;;7.75;5.00;;;;;;;;4971383;28;46885;-63
2022/06/13 05:15:15;;;;;;;;;7.75;7.00;;;;;;;;4972295;28;45419;-63
2022/06/13 05:17:50;;;;;;;;;5.50;5.25;;;;;;;;4972029;28;45406;-63
2022/06/13 05:20:20;;;;;;;;;6.00;5.50;;;;;;;;4968076;28;47572;-63
2022/06/13 05:23:03;;;;;;;;;8.00;5.00;;;;;;;;4972141;28;46065;-63
2022/06/13 05:25:32;;;;;;;;;12.25;7.50;;;;;;;;4955181;28;45464;-63
2022/06/13 05:27:57;;;;;;;;;11.00;7.50;;;;;;;;4972898;28;45878;-63
2022/06/13 05:30:22;;;;;;;;;7.00;6.25;;;;;;;;4971504;28;45812;-63
2022/06/13 05:32:48;;;;;;;;;10.00;6.25;;;;;;;;4971103;28;45498;-63
2022/06/13 05:35:15;;;;;;;;;5.25;4.75;;;;;;;;4969927;28;45452;-64
2022/06/13 05:37:41;;;;;;;;;4.75;4.75;;;;;;;;4971826;28;45385;-63
2022/06/13 05:40:06;;;;;;;;;5.75;5.75;;;;;;;;4971961;28;46435;-64
2022/06/13 05:42:31;;;;;;;;;8.00;7.00;;;;;;;;4972875;28;45398;-64
2022/06/13 05:44:56;;;;;;;;;7.00;5.00;;;;;;;;5006594;28;45638;-64
2022/06/13 05:47:22;;;;;;;;;8.00;7.00;;;;;;;;5006343;28;45569;-64
2022/06/13 05:49:47;;;;;;;;;7.00;6.50;;;;;;;;4972235;28;48572;-64
2022/06/13 05:52:13;;;;;;;;;5.25;5.25;;;;;;;;4975471;28;45502;-63
2022/06/13 05:54:38;;;;;;;;;7.75;6.00;;;;;;;;4975664;28;45730;-63
2022/06/13 05:57:04;;;;;;;;;9.00;6.00;;;;;;;;4974352;28;45794;-64
2022/06/13 05:59:29;;;;;;;;;7.00;6.50;;;;;;;;4974951;28;45913;-64
2022/06/13 06:01:54;;;;;;;;;8.00;5.75;;;;;;;;5006040;28;45658;-64
2022/06/13 06:04:19;;;;;;;;;9.00;6.00;;;;;;;;4975165;28;45342;-63
2022/06/13 06:06:45;;;;;;;;;9.00;6.50;;;;;;;;5007136;28;45797;-63
2022/06/13 06:09:10;;;;;;;;;7.50;7.25;;;;;;;;4974818;28;45614;-64
2022/06/13 06:11:36;;;;;;;;;8.00;6.00;;;;;;;;4974987;28;45408;-64
2022/06/13 06:14:01;;;;;;;;;9.50;8.50;;;;;;;;4976086;28;45511;-64
2022/06/13 06:16:27;;;;;;;;;9.00;9.00;;;;;;;;4976260;28;47682;-63
2022/06/13 06:18:52;;;;;;;;;9.00;7.00;;;;;;;;4975281;28;46364;-63
2022/06/13 06:21:18;;;;;;;;;6.75;6.75;;;;;;;;4972414;28;45392;-64
2022/06/13 06:23:43;;;;;;;;;11.25;6.00;;;;;;;;4972489;28;45397;-63
2022/06/13 06:26:18;;;;;;;;;10.00;8.00;;;;;;;;4973833;28;45397;-63
2022/06/13 06:28:43;;;;;;;;;8.25;7.25;;;;;;;;4974347;28;46569;-63
2022/06/13 06:31:10;;;;;;;;;7.50;6.50;;;;;;;;4974103;28;45429;-63
2022/06/13 06:33:35;;;;;;;;;10.00;7.25;;;;;;;;4975328;28;45418;-63
2022/06/13 06:36:03;;;;;;;;;7.75;6.75;;;;;;;;4974632;28;45929;-64
2022/06/13 06:38:29;;;;;;;;;10.00;8.00;;;;;;;;4974221;28;46429;-64
2022/06/13 06:40:54;;;;;;;;;8.00;6.50;;;;;;;;4974373;28;45503;-64
2022/06/13 06:43:19;;;;;;;;;11.75;8.00;;;;;;;;4974606;28;45355;-64
2022/06/13 06:45:44;;;;;;;;;9.50;8.75;;;;;;;;4974630;28;46120;-63
2022/06/13 06:48:13;;;;;;;;;12.50;7.75;;;;;;;;4974340;28;45590;-64
2022/06/13 06:50:41;;;;;;;;;7.75;6.00;;;;;;;;4974224;28;45449;-64
2022/06/13 06:53:06;;;;;;;;;9.75;9.00;;;;;;;;4972770;28;46486;-64
2022/06/13 07:01:14;;;;;;;;;7.00;5.25;;;;;;;;4973315;28;48028;-63
2022/06/13 07:03:40;;;;;;;;;7.75;7.50;;;;;;;;4991813;28;45585;-63
2022/06/13 07:06:07;;;;;;;;;6.00;5.00;;;;;;;;4982712;28;45500;-63
2022/06/13 07:08:32;;;;;;;;;6.00;6.00;;;;;;;;4980163;28;45691;-63
2022/06/13 07:11:54;;;;;;;;;5.00;4.75;;;;;;;;4979545;28;45379;-64
2022/06/13 07:13:46;;;;;;;;;5.75;5.50;;;;;;;;4977857;28;45364;-65
2022/06/13 07:16:12;;;;;;;;;11.50;7.00;;;;;;;;4974714;28;45467;-64
2022/06/13 07:18:37;;;;;;;;;6.25;6.25;;;;;;;;4978516;28;46888;-64
2022/06/13 07:21:02;;;;;;;;;4.50;4.50;;;;;;;;4963284;28;46072;-65
2022/06/13 07:23:27;;;;;;;;;8.00;4.00;;;;;;;;4984894;28;45467;-63
2022/06/13 07:25:53;;;;;;;;;5.50;5.00;;;;;;;;4991389;28;45300;-63
2022/06/13 07:28:18;;;;;;;;;7.75;5.00;;;;;;;;4975450;28;46626;-63
2022/06/13 07:30:43;;;;;;;;;8.00;6.00;;;;;;;;4977899;28;45521;-64
2022/06/13 07:33:08;;;;;;;;;6.75;6.75;;;;;;;;4979802;28;46049;-62
2022/06/13 07:35:34;;;;;;;;;4.75;4.75;;;;;;;;4963326;28;45486;-63
2022/06/13 07:38:17;;;;;;;;;3.75;3.75;;;;;;;;4962318;28;46333;-64
2022/06/13 07:40:47;;;;;;;;;4.75;3.75;;;;;;;;4957335;28;45405;-63
2022/06/13 07:43:32;;;;;;;;;4.50;4.50;;;;;;;;4973836;28;45535;-64
2022/06/13 07:45:59;;;;;;;;;4.25;4.25;;;;;;;;4974183;28;45963;-62
2022/06/13 07:48:25;;;;;;;;;6.00;5.00;;;;;;;;4973305;28;45534;-64
2022/06/13 07:50:50;;;;;;;;;5.75;4.75;;;;;;;;4973313;28;45613;-64
2022/06/13 07:53:16;;;;;;;;;5.75;5.25;;;;;;;;4971887;28;45345;-65
2022/06/13 07:55:41;;;;;;;;;4.75;3.50;;;;;;;;4972743;28;45565;-64
2022/06/13 07:58:15;;;;;;;;;5.50;2.50;;;;;;;;4989364;28;47666;-65
2022/06/13 08:00:40;;;;;;;;;5.75;5.00;;;;;;;;4971488;28;45478;-63
2022/06/13 08:03:06;;;;;;;;;4.75;3.50;;;;;;;;4973327;28;45387;-63
2022/06/13 08:05:31;;;;;;;;;6.00;3.50;;;;;;;;5004170;28;45610;-64
2022/06/13 08:07:56;;;;;;;;;2.25;2.25;;;;;;;;4972862;28;46337;-63
2022/06/13 08:10:22;;;;;;;;;4.00;3.50;;;;;;;;4973252;28;45719;-64
2022/06/13 08:12:48;;;;;;;;;6.00;3.50;;;;;;;;4974052;28;45472;-64
2022/06/13 08:15:14;;;;;;;;;4.75;4.00;;;;;;;;4973068;28;45382;-64
2022/06/13 08:17:39;;;;;;;;;6.50;5.25;;;;;;;;4972883;28;46375;-64
2022/06/13 08:20:07;;;;;;;;;4.00;2.75;;;;;;;;4972971;28;45470;-64
2022/06/13 08:22:33;;;;;;;;;4.00;2.75;;;;;;;;4972437;28;45488;-64
2022/06/13 08:24:58;;;;;;;;;3.50;3.25;;;;;;;;4971668;28;46049;-64
2022/06/13 08:27:25;;;;;;;;;4.00;3.00;;;;;;;;4972833;28;46646;-65
2022/06/13 08:29:50;;;;;;;;;2.25;2.00;;;;;;;;4972743;28;45372;-63
2022/06/13 08:32:15;;;;;;;;;4.00;2.00;;;;;;;;4972746;28;45430;-65
2022/06/13 08:34:41;;;;;;;;;2.00;2.00;;;;;;;;5004461;28;45635;-65
2022/06/13 08:37:06;;;;;;;;;0.50;0.50;;;;;;;;4972201;28;45943;-64
2022/06/13 08:39:31;;;;;;;;;1.75;1.75;;;;;;;;4972774;28;45313;-65
2022/06/13 08:42:04;;;;;;;;;3.25;2.25;;;;;;;;4971488;28;45583;-64
2022/06/13 08:44:29;;;;;;;;;2.00;2.00;;;;;;;;4972742;28;45509;-64
2022/06/13 08:46:58;;;;;;;;;2.00;1.50;;;;;;;;4971914;28;45422;-64
2022/06/13 08:49:29;;;;;;;;;2.50;2.50;;;;;;;;4973012;28;45339;-64
2022/06/13 08:52:15;;;;;;;;;3.00;2.50;;;;;;;;5004451;28;45466;-64
2022/06/13 08:54:42;;;;;;;;;2.00;2.00;;;;;;;;4972922;28;45701;-65
2022/06/13 08:57:08;;;;;;;;;4.75;3.50;;;;;;;;4970542;28;47686;-64
2022/06/13 08:59:41;;;;;;;;;3.25;3.25;;;;;;;;4970944;28;45435;-63
2022/06/13 09:02:22;;;;;;;;;2.75;2.50;;;;;;;;4972568;28;45459;-64
2022/06/13 09:04:50;;;;;;;;;6.00;3.25;;;;;;;;4972634;28;45454;-65
2022/06/13 09:07:20;;;;;;;;;3.00;3.00;;;;;;;;4972258;28;46727;-65
2022/06/13 09:09:50;;;;;;;;;2.25;2.25;;;;;;;;4972854;28;45482;-64
2022/06/13 09:12:18;;;;;;;;;4.00;2.50;;;;;;;;4986013;28;45635;-63
2022/06/13 09:14:57;;;;;;;;;2.00;2.00;;;;;;;;4972448;28;45492;-64
2022/06/13 09:17:22;;;;;;;;;3.50;3.00;;;;;;;;4972630;28;45533;-64
2022/06/13 09:19:55;;;;;;;;;4.25;4.00;;;;;;;;4975665;28;45984;-64
2022/06/13 09:22:43;;;;;;;;;1.75;1.75;;;;;;;;4975700;28;45480;-63
2022/06/13 09:25:08;;;;;;;;;3.00;3.00;;;;;;;;4976016;28;45411;-64
2022/06/13 09:27:41;;;;;;;;;3.25;1.75;;;;;;;;4975996;28;46539;-64
2022/06/13 09:30:06;;;;;;;;;1.25;1.25;;;;;;;;4973719;28;45555;-64
2022/06/13 09:32:39;;;;;;;;;3.00;3.00;;;;;;;;4975888;28;45623;-64
2022/06/13 09:35:22;;;;;;;;;2.50;1.00;;;;;;;;4976134;28;45644;-65
2022/06/13 09:37:53;;;;;;;;;2.75;2.75;;;;;;;;4975441;28;45784;-63
2022/06/13 09:40:24;;;;;;;;;2.50;2.50;;;;;;;;4975327;28;45800;-65
2022/06/13 09:42:49;;;;;;;;;2.00;2.00;;;;;;;;4976061;28;45727;-65
2022/06/13 09:45:23;;;;;;;;;4.25;2.00;;;;;;;;4975299;28;45352;-65
2022/06/13 09:47:48;;;;;;;;;1.50;1.00;;;;;;;;4974488;28;45595;-64
2022/06/13 09:50:28;;;;;;;;;3.75;2.50;;;;;;;;5005883;28;46225;-64
2022/06/13 09:52:56;;;;;;;;;2.00;2.00;;;;;;;;4975452;28;45559;-64
2022/06/13 09:55:24;;;;;;;;;2.00;1.00;;;;;;;;4974899;28;46511;-64
2022/06/13 09:57:58;;;;;;;;;1.00;1.00;;;;;;;;4975460;28;47010;-64
2022/06/13 10:00:41;;;;;;;;;0.75;0.75;;;;;;;;4974607;28;45647;-64
2022/06/13 10:03:15;;;;;;;;;3.00;2.00;;;;;;;;4974890;28;45490;-63
2022/06/13 10:05:45;;;;;;;;;1.00;1.00;;;;;;;;5006415;28;45497;-64
2022/06/13 10:08:10;;;;;;;;;2.50;2.50;;;;;;;;4974479;28;46728;-64
2022/06/13 10:10:41;;;;;;;;;2.00;2.00;;;;;;;;4974577;28;45509;-65
2022/06/13 10:13:15;;;;;;;;;3.00;1.00;;;;;;;;4973031;28;45484;-65
2022/06/13 10:15:46;;;;;;;;;1.25;1.00;;;;;;;;4987497;28;45656;-65
2022/06/13 10:18:17;;;;;;;;;3.50;2.75;;;;;;;;5005429;28;47443;-64
2022/06/13 10:21:08;;;;;;;;;3.00;1.75;;;;;;;;4974389;28;45625;-65
2022/06/13 10:23:36;;;;;;;;;2.00;2.00;;;;;;;;4973375;28;45452;-63
2022/06/13 10:26:08;;;;;;;;;3.00;3.00;;;;;;;;4974790;28;45503;-66
2022/06/13 10:28:36;;;;;;;;;4.75;1.75;;;;;;;;5005773;28;46587;-65
2022/06/13 10:31:08;;;;;;;;;2.50;1.00;;;;;;;;4972583;28;45432;-65
2022/06/13 10:33:45;;;;;;;;;2.00;2.00;;;;;;;;4974815;28;45589;-64
2022/06/13 10:36:18;;;;;;;;;1.75;1.00;;;;;;;;4974518;28;45515;-64
2022/06/13 10:38:51;;;;;;;;;3.25;2.00;;;;;;;;4972130;28;46451;-64
2022/06/13 10:41:16;;;;;;;;;1.25;1.25;;;;;;;;4974543;28;45660;-64
2022/06/13 10:43:42;;;;;;;;;3.00;3.00;;;;;;;;5006158;28;45472;-64
2022/06/13 10:46:10;;;;;;;;;2.75;2.75;;;;;;;;4974870;28;45416;-65
2022/06/13 10:48:55;;;;;;;;;3.00;1.25;;;;;;;;4973761;28;45741;-64
2022/06/13 10:51:20;;;;;;;;;1.00;1.00;;;;;;;;4974417;28;45431;-64
2022/06/13 10:53:48;;;;;;;;;4.25;2.50;;;;;;;;4974452;28;45485;-64
2022/06/13 10:56:16;;;;;;;;;3.00;2.00;;;;;;;;5006205;28;45544;-65
2022/06/13 10:58:53;;;;;;;;;1.00;1.00;;;;;;;;4974600;28;46253;-64
2022/06/13 11:01:28;;;;;;;;;0.75;0.75;;;;;;;;4974381;28;45547;-65
2022/06/13 11:04:03;;;;;;;;;2.25;1.50;;;;;;;;4975271;28;45456;-64
2022/06/13 11:06:48;;;;;;;;;2.25;2.25;;;;;;;;4974536;28;45585;-64
2022/06/13 11:09:22;;;;;;;;;1.50;1.50;;;;;;;;4974022;28;46220;-65
2022/06/13 11:11:52;;;;;;;;;2.00;2.00;;;;;;;;4974459;28;45835;-64
2022/06/13 11:23:02;;;;;;;;;3.25;2.25;;;;;;;;4971577;28;45426;-64
2022/06/13 11:25:30;;;;;;;;;3.75;3.00;;;;;;;;4973521;28;45371;-64
2022/06/13 11:28:07;;;;;;;;;2.50;2.50;;;;;;;;4974574;28;45387;-63
2022/06/13 11:30:37;;;;;;;;;4.00;3.00;;;;;;;;5005783;28;47802;-66
2022/06/13 11:33:05;;;;;;;;;3.00;3.00;;;;;;;;4971589;28;45536;-65
2022/06/13 11:35:54;;;;;;;;;4.00;3.00;;;;;;;;4970156;28;45552;-64
2022/06/13 11:38:19;;;;;;;;;2.00;2.00;;;;;;;;4952167;28;45539;-64
2022/06/13 11:40:46;;;;;;;;;4.25;2.75;;;;;;;;4933808;28;48324;-64
2022/06/13 11:43:23;;;;;;;;;3.25;2.00;;;;;;;;4952608;28;45461;-65
2022/06/13 11:45:56;;;;;;;;;4.00;3.00;;;;;;;;4953045;28;45458;-65
2022/06/13 11:48:22;;;;;;;;;4.25;2.25;;;;;;;;4935430;28;45448;-66
2022/06/13 11:50:52;;;;;;;;;1.75;1.00;;;;;;;;4950747;28;45575;-65
2022/06/13 11:53:37;;;;;;;;;4.75;3.75;;;;;;;;4950721;28;45557;-66
2022/06/13 11:56:04;;;;;;;;;1.75;1.75;;;;;;;;4951525;28;45507;-65
2022/06/13 11:58:31;;;;;;;;;2.50;2.50;;;;;;;;4934658;28;45740;-65
2022/06/13 12:01:23;;;;;;;;;1.75;1.75;;;;;;;;4951715;28;46621;-65
2022/06/13 12:03:58;;;;;;;;;2.00;2.00;;;;;;;;4948302;28;45476;-65
2022/06/13 12:06:24;;;;;;;;;1.50;1.50;;;;;;;;4950164;28;47232;-66
2022/06/13 12:08:50;;;;;;;;;4.00;2.00;;;;;;;;4951009;28;45512;-65
2022/06/13 12:11:15;;;;;;;;;4.25;3.00;;;;;;;;4934664;28;48676;-65
2022/06/13 12:13:42;;;;;;;;;1.00;1.00;;;;;;;;4951124;28;45465;-65
2022/06/13 12:16:10;;;;;;;;;2.00;2.00;;;;;;;;4949735;28;45445;-65
2022/06/13 12:18:36;;;;;;;;;2.50;2.50;;;;;;;;4966288;28;45458;-65
2022/06/13 12:21:08;;;;;;;;;3.25;3.00;;;;;;;;4963463;28;45510;-64
2022/06/13 12:23:42;;;;;;;;;2.25;1.00;;;;;;;;4972781;28;45621;-65
2022/06/13 12:26:28;;;;;;;;;3.00;3.00;;;;;;;;4972899;28;45383;-64
2022/06/13 12:29:13;;;;;;;;;2.00;2.00;;;;;;;;4973073;28;45430;-65
2022/06/13 12:31:48;;;;;;;;;3.50;2.00;;;;;;;;4955508;28;47527;-65
2022/06/13 12:34:32;;;;;;;;;3.00;2.00;;;;;;;;4966969;28;45856;-63
2022/06/13 12:37:06;;;;;;;;;1.25;1.00;;;;;;;;4984329;28;45517;-66
2022/06/13 12:39:47;;;;;;;;;2.00;2.00;;;;;;;;4965376;28;45563;-64
2022/06/13 12:42:22;;;;;;;;;2.00;2.00;;;;;;;;4985856;28;48540;-65
2022/06/13 12:45:06;;;;;;;;;3.00;2.00;;;;;;;;4974789;28;45419;-65
2022/06/13 12:47:53;;;;;;;;;2.00;2.00;;;;;;;;4983404;28;45409;-66
2022/06/13 12:50:33;;;;;;;;;3.00;1.50;;;;;;;;4976890;28;45490;-65
2022/06/13 12:53:14;;;;;;;;;2.25;2.25;;;;;;;;4996875;28;47689;-65
2022/06/13 12:55:57;;;;;;;;;2.50;2.00;;;;;;;;4974422;28;45498;-64
2022/06/13 12:58:38;;;;;;;;;3.50;2.50;;;;;;;;4984885;28;45518;-65
2022/06/13 13:01:10;;;;;;;;;3.00;3.00;;;;;;;;5001211;28;45517;-65
2022/06/13 13:03:56;;;;;;;;;4.50;3.00;;;;;;;;4983380;28;45848;-65
2022/06/13 13:06:21;;;;;;;;;2.00;2.00;;;;;;;;4978787;28;45400;-65
2022/06/13 13:09:00;;;;;;;;;1.50;1.50;;;;;;;;4984055;28;45561;-64
2022/06/13 13:11:26;;;;;;;;;1.00;0.50;;;;;;;;4975561;28;45478;-64
2022/06/13 13:14:01;;;;;;;;;2.00;1.25;;;;;;;;4985395;28;46553;-64
2022/06/13 13:16:27;;;;;;;;;1.50;0.50;;;;;;;;4990104;28;45470;-67
2022/06/13 13:18:54;;;;;;;;;2.00;2.00;;;;;;;;4982361;28;45392;-67
2022/06/13 13:21:22;;;;;;;;;2.25;2.00;;;;;;;;4980115;28;45322;-65
2022/06/13 13:23:47;;;;;;;;;2.00;1.00;;;;;;;;4980795;28;45466;-64
2022/06/13 13:26:27;;;;;;;;;2.00;2.00;;;;;;;;4988374;28;45721;-65
2022/06/13 13:28:52;;;;;;;;;3.00;3.00;;;;;;;;5000909;28;45443;-65
2022/06/13 13:31:33;;;;;;;;;3.50;2.75;;;;;;;;5016253;28;45362;-65
2022/06/13 13:34:04;;;;;;;;;3.00;2.75;;;;;;;;4993335;28;46586;-65
2022/06/13 13:36:49;;;;;;;;;1.25;1.25;;;;;;;;4981998;28;45443;-65
2022/06/13 13:39:21;;;;;;;;;3.00;2.00;;;;;;;;4990114;28;45890;-65
2022/06/13 13:41:48;;;;;;;;;3.00;3.00;;;;;;;;4981283;28;45642;-65
2022/06/13 13:44:13;;;;;;;;;3.00;2.00;;;;;;;;4986531;28;46487;-67
2022/06/13 13:46:45;;;;;;;;;2.00;2.00;;;;;;;;4988128;28;45551;-65
2022/06/13 13:49:15;;;;;;;;;2.00;2.00;;;;;;;;4984698;28;45482;-65
2022/06/13 13:51:44;;;;;;;;;3.00;3.00;;;;;;;;5001291;28;45630;-65
2022/06/13 13:54:19;;;;;;;;;4.00;3.00;;;;;;;;4990393;28;46215;-65
2022/06/13 13:56:47;;;;;;;;;2.25;2.25;;;;;;;;4988614;28;45985;-66
2022/06/13 13:59:14;;;;;;;;;2.00;2.00;;;;;;;;4993354;28;45415;-65
2022/06/13 14:01:56;;;;;;;;;1.50;1.50;;;;;;;;4982428;28;45489;-65
2022/06/13 14:04:40;;;;;;;;;1.75;1.75;;;;;;;;5021397;28;46442;-64
2022/06/13 14:07:23;;;;;;;;;3.00;2.00;;;;;;;;4987442;28;46284;-65
2022/06/13 14:09:49;;;;;;;;;2.00;2.00;;;;;;;;4992439;28;45336;-65
2022/06/13 14:12:14;;;;;;;;;0.75;0.75;;;;;;;;4984069;28;45347;-65
2022/06/13 14:14:49;;;;;;;;;2.00;1.00;;;;;;;;4987058;28;45473;-66
2022/06/13 14:17:20;;;;;;;;;2.75;1.50;;;;;;;;4992235;28;45593;-64
2022/06/13 14:19:51;;;;;;;;;1.25;1.00;;;;;;;;4971223;28;45815;-64
2022/06/13 14:22:18;;;;;;;;;2.00;1.00;;;;;;;;4976961;28;45487;-63
2022/06/13 14:24:45;;;;;;;;;1.00;1.00;;;;;;;;4983426;28;45879;-65
2022/06/13 14:27:10;;;;;;;;;2.00;2.00;;;;;;;;4985404;28;45396;-64
2022/06/13 14:29:37;;;;;;;;;2.25;1.75;;;;;;;;4989697;28;45487;-64
2022/06/13 14:32:15;;;;;;;;;1.00;1.00;;;;;;;;4984736;28;49799;-64
2022/06/13 14:37:42;;;;;;;;;1.25;1.25;;;;;;;;4982177;28;45324;-65
2022/06/13 14:40:28;;;;;;;;;3.50;2.25;;;;;;;;4989684;28;45395;-64
2022/06/13 14:43:12;;;;;;;;;1.75;0.75;;;;;;;;4985418;28;45304;-65
2022/06/13 14:45:48;;;;;;;;;1.00;1.00;;;;;;;;4989436;28;46552;-65
2022/06/13 14:48:14;;;;;;;;;2.00;2.00;;;;;;;;4983872;28;45438;-65
2022/06/13 14:50:42;;;;;;;;;3.00;2.75;;;;;;;;4988638;28;45565;-64
2022/06/13 14:53:26;;;;;;;;;2.50;1.00;;;;;;;;5003206;28;45343;-65
2022/06/13 14:56:07;;;;;;;;;1.75;1.75;;;;;;;;4987786;28;47665;-65
2022/06/13 14:58:47;;;;;;;;;3.00;1.50;;;;;;;;4971077;28;45641;-65
2022/06/13 15:01:15;;;;;;;;;2.00;2.00;;;;;;;;4973907;28;45372;-65
2022/06/13 15:04:00;;;;;;;;;0.50;0.50;;;;;;;;4978614;28;45521;-65
2022/06/13 15:06:26;;;;;;;;;1.50;1.50;;;;;;;;4975079;28;45616;-67
2022/06/13 15:09:00;;;;;;;;;2.50;2.50;;;;;;;;4989015;28;45905;-65
2022/06/13 15:11:25;;;;;;;;;1.00;1.00;;;;;;;;4988000;28;45435;-63
2022/06/13 15:13:51;;;;;;;;;1.50;1.50;;;;;;;;4980281;28;45411;-65
2022/06/13 15:16:16;;;;;;;;;1.00;1.00;;;;;;;;4973421;28;45702;-66
2022/06/13 15:18:44;;;;;;;;;4.25;3.00;;;;;;;;4973267;28;45335;-65
2022/06/13 15:21:17;;;;;;;;;1.50;1.25;;;;;;;;4977042;28;45528;-65
2022/06/13 15:23:44;;;;;;;;;2.00;1.50;;;;;;;;4981813;28;46301;-65
2022/06/13 15:26:21;;;;;;;;;1.00;1.00;;;;;;;;4985473;28;47449;-66